KRSW/RSW METAR and TAF weather

Enter ICAO airport designator
Station Type Date Time Source
KRSW METAR 2021/09/23 22:53 UTC NOAA

KRSW 232253Z 19003KT 10SM CLR 29/23 A2987 RMK AO2 SLP111 T02890228


Station Type Date Time Source
KRSW Decoded METAR 2021/09/23 22:53 UTC NOAA

FORT MYERS SW FL INTERNATIONAL AIRPORT , FL, United States (KRSW) 26-32N 081-46W 9M
Sep 23, 2021 - 06:53 PM EDT / 2021.09.23 2253 UTC
Wind: from the S (190 degrees) at 3 MPH (3 KT):0
Visibility: 10 mile(s):0
Sky conditions: clear
Temperature: 84.0 F (28.9 C)
Dew Point: 73.0 F (22.8 C)
Relative Humidity: 69%
Pressure (altimeter): 29.87 in. Hg (1011 hPa)
ob: KRSW 232253Z 19003KT 10SM CLR 29/23 A2987 RMK AO2 SLP111 T02890228
cycle: 23

Station Type Date Time Source
KRSW TAF 2021/09/23 18:46 UTC NOAA

TAF KRSW 231743Z 2318/2418 07006KT P6SM VCTS FEW030CB BKN050
FM232100 26007KT P6SM VCTS FEW030CB BKN050
FM240200 VRB04KT P6SM SCT030
FM241400 06006KT P6SM SCT050 SCT250

Example: see airport list